sensor_id;sensor_type;location;lat;lon;timestamp;pressure;altitude;pressure_sealevel;temperature;humidity
7168;BME280;3625;51.762;14.320;2023-05-02T00:01:17;100381.63;;;12.69;100.00
7168;BME280;3625;51.762;14.320;2023-05-02T00:03:47;100383.41;;;12.69;100.00
7168;BME280;3625;51.762;14.320;2023-05-02T00:06:16;100385.25;;;12.65;100.00
7168;BME280;3625;51.762;14.320;2023-05-02T00:08:45;100390.63;;;12.64;100.00
7168;BME280;3625;51.762;14.320;2023-05-02T00:11:16;100396.78;;;12.64;100.00
7168;BME280;3625;51.762;14.320;2023-05-02T00:13:44;100396.72;;;12.67;100.00
7168;BME280;3625;51.762;14.320;2023-05-02T00:16:13;100402.72;;;12.72;100.00
7168;BME280;3625;51.762;14.320;2023-05-02T00:18:44;100403.47;;;12.77;100.00
7168;BME280;3625;51.762;14.320;2023-05-02T00:21:14;100406.00;;;12.80;100.00
7168;BME280;3625;51.762;14.320;2023-05-02T00:23:42;100407.75;;;12.81;100.00
7168;BME280;3625;51.762;14.320;2023-05-02T00:26:11;100406.13;;;12.77;100.00
7168;BME280;3625;51.762;14.320;2023-05-02T00:28:42;100403.59;;;12.73;100.00
7168;BME280;3625;51.762;14.320;2023-05-02T00:31:10;100407.34;;;12.67;100.00
7168;BME280;3625;51.762;14.320;2023-05-02T00:33:39;100410.97;;;12.63;100.00
7168;BME280;3625;51.762;14.320;2023-05-02T00:36:14;100405.84;;;12.59;100.00
7168;BME280;3625;51.762;14.320;2023-05-02T00:38:44;100414.75;;;12.56;100.00
7168;BME280;3625;51.762;14.320;2023-05-02T00:41:13;100418.44;;;12.52;100.00
7168;BME280;3625;51.762;14.320;2023-05-02T00:43:41;100415.00;;;12.48;100.00
7168;BME280;3625;51.762;14.320;2023-05-02T00:46:10;100415.94;;;12.46;100.00
7168;BME280;3625;51.762;14.320;2023-05-02T00:48:40;100411.50;;;12.46;100.00
7168;BME280;3625;51.762;14.320;2023-05-02T00:51:08;100409.84;;;12.44;100.00
7168;BME280;3625;51.762;14.320;2023-05-02T00:53:41;100409.00;;;12.42;100.00
7168;BME280;3625;51.762;14.320;2023-05-02T00:56:09;100415.28;;;12.39;100.00
7168;BME280;3625;51.762;14.320;2023-05-02T00:58:39;100410.00;;;12.38;100.00
7168;BME280;3625;51.762;14.320;2023-05-02T01:01:20;100411.00;;;12.35;100.00
7168;BME280;3625;51.762;14.320;2023-05-02T01:04:00;100417.25;;;12.33;100.00
7168;BME280;3625;51.762;14.320;2023-05-02T01:06:42;100418.22;;;12.29;100.00
7168;BME280;3625;51.762;14.320;2023-05-02T01:09:28;100409.47;;;12.27;100.00
7168;BME280;3625;51.762;14.320;2023-05-02T01:12:05;100415.69;;;12.26;100.00
7168;BME280;3625;51.762;14.320;2023-05-02T01:14:41;100425.47;;;12.24;100.00
7168;BME280;3625;51.762;14.320;2023-05-02T01:17:12;100421.09;;;12.23;100.00
7168;BME280;3625;51.762;14.320;2023-05-02T01:19:46;100418.50;;;12.20;100.00
7168;BME280;3625;51.762;14.320;2023-05-02T01:22:18;100420.25;;;12.21;100.00
7168;BME280;3625;51.762;14.320;2023-05-02T01:25:06;100423.00;;;12.18;100.00
7168;BME280;3625;51.762;14.320;2023-05-02T01:27:42;100421.34;;;12.14;100.00
7168;BME280;3625;51.762;14.320;2023-05-02T01:30:18;100428.47;;;12.12;100.00
7168;BME280;3625;51.762;14.320;2023-05-02T01:32:49;100433.88;;;12.08;100.00
7168;BME280;3625;51.762;14.320;2023-05-02T01:35:20;100441.00;;;12.06;100.00
7168;BME280;3625;51.762;14.320;2023-05-02T01:37:51;100436.63;;;12.05;100.00
7168;BME280;3625;51.762;14.320;2023-05-02T01:40:21;100438.50;;;12.02;100.00
7168;BME280;3625;51.762;14.320;2023-05-02T01:42:53;100441.19;;;12.00;100.00
7168;BME280;3625;51.762;14.320;2023-05-02T01:45:24;100448.25;;;12.01;100.00
7168;BME280;3625;51.762;14.320;2023-05-02T01:47:54;100445.63;;;12.00;100.00
7168;BME280;3625;51.762;14.320;2023-05-02T01:50:24;100441.22;;;11.99;100.00
7168;BME280;3625;51.762;14.320;2023-05-02T01:52:56;100446.66;;;11.94;100.00
7168;BME280;3625;51.762;14.320;2023-05-02T01:55:26;100440.53;;;11.92;100.00
7168;BME280;3625;51.762;14.320;2023-05-02T01:57:56;100439.72;;;11.90;100.00
7168;BME280;3625;51.762;14.320;2023-05-02T02:00:27;100433.59;;;11.87;100.00
7168;BME280;3625;51.762;14.320;2023-05-02T02:02:57;100442.47;;;11.86;100.00
7168;BME280;3625;51.762;14.320;2023-05-02T02:05:28;100433.66;;;11.85;100.00
7168;BME280;3625;51.762;14.320;2023-05-02T02:07:57;100442.53;;;11.84;100.00
7168;BME280;3625;51.762;14.320;2023-05-02T02:10:28;100440.78;;;11.83;100.00
7168;BME280;3625;51.762;14.320;2023-05-02T02:13:10;100413.09;;;11.61;100.00
7168;BME280;3625;51.762;14.320;2023-05-02T02:15:46;100325.41;;;11.07;100.00
7168;BME280;3625;51.762;14.320;2023-05-02T02:18:20;100454.19;;;11.77;100.00
7168;BME280;3625;51.762;14.320;2023-05-02T02:20:52;100447.19;;;11.76;100.00
7168;BME280;3625;51.762;14.320;2023-05-02T02:23:26;100455.97;;;11.77;100.00
7168;BME280;3625;51.762;14.320;2023-05-02T02:25:57;100454.25;;;11.76;100.00
7168;BME280;3625;51.762;14.320;2023-05-02T02:28:26;100461.34;;;11.73;100.00
7168;BME280;3625;51.762;14.320;2023-05-02T02:30:56;100462.28;;;11.71;100.00
7168;BME280;3625;51.762;14.320;2023-05-02T02:33:29;100465.00;;;11.68;100.00
7168;BME280;3625;51.762;14.320;2023-05-02T02:36:03;100466.88;;;11.64;100.00
7168;BME280;3625;51.762;14.320;2023-05-02T02:38:41;100465.19;;;11.62;100.00
7168;BME280;3625;51.762;14.320;2023-05-02T02:41:18;100471.34;;;11.62;100.00
7168;BME280;3625;51.762;14.320;2023-05-02T02:43:59;100462.50;;;11.63;100.00
7168;BME280;3625;51.762;14.320;2023-05-02T02:46:43;100473.25;;;11.57;100.00
7168;BME280;3625;51.762;14.320;2023-05-02T02:49:25;100472.41;;;11.55;100.00
7168;BME280;3625;51.762;14.320;2023-05-02T02:52:05;100483.13;;;11.51;100.00
7168;BME280;3625;51.762;14.320;2023-05-02T02:54:46;100476.19;;;11.47;100.00
7168;BME280;3625;51.762;14.320;2023-05-02T02:57:26;100494.81;;;11.42;100.00
7168;BME280;3625;51.762;14.320;2023-05-02T03:00:00;100492.25;;;11.41;100.00
7168;BME280;3625;51.762;14.320;2023-05-02T03:02:32;100489.59;;;11.41;100.00
7168;BME280;3625;51.762;14.320;2023-05-02T03:05:05;100493.19;;;11.38;100.00
7168;BME280;3625;51.762;14.320;2023-05-02T03:07:35;100489.69;;;11.36;100.00
7168;BME280;3625;51.762;14.320;2023-05-02T03:10:05;100494.22;;;11.32;100.00
7168;BME280;3625;51.762;14.320;2023-05-02T03:12:35;100502.16;;;11.32;100.00
7168;BME280;3625;51.762;14.320;2023-05-02T03:15:23;100500.34;;;11.33;100.00
7168;BME280;3625;51.762;14.320;2023-05-02T03:18:00;100496.03;;;11.30;100.00
7168;BME280;3625;51.762;14.320;2023-05-02T03:20:29;100502.25;;;11.28;100.00
7168;BME280;3625;51.762;14.320;2023-05-02T03:23:05;100496.06;;;11.29;100.00
7168;BME280;3625;51.762;14.320;2023-05-02T03:25:34;100504.03;;;11.27;100.00
7168;BME280;3625;51.762;14.320;2023-05-02T03:28:03;100504.97;;;11.25;100.00
7168;BME280;3625;51.762;14.320;2023-05-02T03:30:33;100505.97;;;11.21;100.00
7168;BME280;3625;51.762;14.320;2023-05-02T03:33:03;100516.63;;;11.18;100.00
7168;BME280;3625;51.762;14.320;2023-05-02T03:35:36;100507.06;;;11.12;100.00
7168;BME280;3625;51.762;14.320;2023-05-02T03:38:04;100492.50;;;10.93;100.00
7168;BME280;3625;51.762;14.320;2023-05-02T03:40:35;100520.66;;;10.97;100.00
7168;BME280;3625;51.762;14.320;2023-05-02T03:43:08;100522.63;;;10.87;100.00
7168;BME280;3625;51.762;14.320;2023-05-02T03:45:38;100527.25;;;10.78;100.00
7168;BME280;3625;51.762;14.320;2023-05-02T03:48:08;100527.41;;;10.72;100.00
7168;BME280;3625;51.762;14.320;2023-05-02T03:50:37;100530.13;;;10.67;100.00
7168;BME280;3625;51.762;14.320;2023-05-02T03:53:06;100533.75;;;10.63;100.00
7168;BME280;3625;51.762;14.320;2023-05-02T03:55:45;100542.63;;;10.61;100.00
7168;BME280;3625;51.762;14.320;2023-05-02T03:58:22;100543.38;;;10.66;100.00
7168;BME280;3625;51.762;14.320;2023-05-02T04:00:52;100544.22;;;10.68;100.00
7168;BME280;3625;51.762;14.320;2023-05-02T04:03:23;100543.31;;;10.69;100.00
7168;BME280;3625;51.762;14.320;2023-05-02T04:05:57;100545.00;;;10.73;100.00
7168;BME280;3625;51.762;14.320;2023-05-02T04:08:26;100543.06;;;10.81;100.00
7168;BME280;3625;51.762;14.320;2023-05-02T04:10:56;100555.19;;;10.91;100.00
7168;BME280;3625;51.762;14.320;2023-05-02T04:13:28;100558.63;;;10.96;100.00
7168;BME280;3625;51.762;14.320;2023-05-02T04:15:57;100572.69;;;10.98;100.00
7168;BME280;3625;51.762;14.320;2023-05-02T04:18:32;100576.03;;;11.06;100.00
7168;BME280;3625;51.762;14.320;2023-05-02T04:21:03;100574.16;;;11.11;100.00
7168;BME280;3625;51.762;14.320;2023-05-02T04:23:32;100580.16;;;11.18;100.00
7168;BME280;3625;51.762;14.320;2023-05-02T04:26:03;100584.41;;;11.25;100.00
7168;BME280;3625;51.762;14.320;2023-05-02T04:28:48;100594.84;;;11.32;100.00
7168;BME280;3625;51.762;14.320;2023-05-02T04:31:17;100599.19;;;11.35;100.00
7168;BME280;3625;51.762;14.320;2023-05-02T04:33:48;100601.66;;;11.43;100.00
7168;BME280;3625;51.762;14.320;2023-05-02T04:36:21;100605.94;;;11.50;100.00
7168;BME280;3625;51.762;14.320;2023-05-02T04:38:50;100603.91;;;11.59;100.00
7168;BME280;3625;51.762;14.320;2023-05-02T04:41:20;100614.25;;;11.70;100.00
7168;BME280;3625;51.762;14.320;2023-05-02T04:43:58;100623.75;;;11.80;100.00
7168;BME280;3625;51.762;14.320;2023-05-02T04:46:28;100620.00;;;11.89;100.00
7168;BME280;3625;51.762;14.320;2023-05-02T04:48:58;100626.94;;;11.94;100.00
7168;BME280;3625;51.762;14.320;2023-05-02T04:51:28;100626.81;;;12.00;100.00
7168;BME280;3625;51.762;14.320;2023-05-02T04:53:59;100641.44;;;12.15;100.00
7168;BME280;3625;51.762;14.320;2023-05-02T04:56:28;100640.25;;;12.27;100.00
7168;BME280;3625;51.762;14.320;2023-05-02T04:58:56;100648.75;;;12.39;100.00
7168;BME280;3625;51.762;14.320;2023-05-02T05:01:25;100652.66;;;12.59;100.00
7168;BME280;3625;51.762;14.320;2023-05-02T05:03:58;100653.69;;;12.85;100.00
7168;BME280;3625;51.762;14.320;2023-05-02T05:06:29;100656.38;;;13.15;100.00
7168;BME280;3625;51.762;14.320;2023-05-02T05:09:00;100670.97;;;13.31;100.00
7168;BME280;3625;51.762;14.320;2023-05-02T05:11:30;100674.16;;;13.42;99.40
7168;BME280;3625;51.762;14.320;2023-05-02T05:13:59;100671.84;;;13.59;96.29
7168;BME280;3625;51.762;14.320;2023-05-02T05:16:35;100673.69;;;13.85;95.21
7168;BME280;3625;51.762;14.320;2023-05-02T05:19:06;100683.41;;;14.13;88.51
7168;BME280;3625;51.762;14.320;2023-05-02T05:21:35;100684.28;;;14.41;83.57
7168;BME280;3625;51.762;14.320;2023-05-02T05:24:05;100686.50;;;14.53;80.59
7168;BME280;3625;51.762;14.320;2023-05-02T05:26:38;100701.47;;;14.57;75.88
7168;BME280;3625;51.762;14.320;2023-05-02T05:29:08;100706.22;;;14.48;73.65
7168;BME280;3625;51.762;14.320;2023-05-02T05:31:40;100715.00;;;14.51;75.74
7168;BME280;3625;51.762;14.320;2023-05-02T05:34:13;100733.50;;;14.54;72.77
7168;BME280;3625;51.762;14.320;2023-05-02T05:36:43;100748.81;;;14.48;72.91
7168;BME280;3625;51.762;14.320;2023-05-02T05:39:12;100727.91;;;14.35;73.49
7168;BME280;3625;51.762;14.320;2023-05-02T05:41:43;100735.16;;;14.30;72.53
7168;BME280;3625;51.762;14.320;2023-05-02T05:44:13;100750.69;;;14.18;71.15
7168;BME280;3625;51.762;14.320;2023-05-02T05:46:43;100743.09;;;14.06;73.43
7168;BME280;3625;51.762;14.320;2023-05-02T05:49:15;100747.16;;;13.89;71.85
7168;BME280;3625;51.762;14.320;2023-05-02T05:51:45;100755.69;;;13.71;73.84
7168;BME280;3625;51.762;14.320;2023-05-02T05:54:16;100697.38;;;13.36;72.50
7168;BME280;3625;51.762;14.320;2023-05-02T05:56:45;100770.22;;;13.59;74.39
7168;BME280;3625;51.762;14.320;2023-05-02T05:59:17;100772.97;;;13.56;72.39
7168;BME280;3625;51.762;14.320;2023-05-02T06:01:47;100774.19;;;13.45;73.38
7168;BME280;3625;51.762;14.320;2023-05-02T06:04:20;100780.38;;;13.45;74.96
7168;BME280;3625;51.762;14.320;2023-05-02T06:06:51;100794.47;;;13.49;75.27
7168;BME280;3625;51.762;14.320;2023-05-02T06:09:21;100785.28;;;13.59;75.20
7168;BME280;3625;51.762;14.320;2023-05-02T06:11:50;100787.06;;;13.58;75.15
7168;BME280;3625;51.762;14.320;2023-05-02T06:14:18;100794.97;;;13.62;74.26
7168;BME280;3625;51.762;14.320;2023-05-02T06:16:48;100801.00;;;13.67;73.46
7168;BME280;3625;51.762;14.320;2023-05-02T06:19:17;100808.19;;;13.65;72.01
7168;BME280;3625;51.762;14.320;2023-05-02T06:21:47;100813.47;;;13.66;71.54
7168;BME280;3625;51.762;14.320;2023-05-02T06:24:16;100803.81;;;13.62;72.21
7168;BME280;3625;51.762;14.320;2023-05-02T06:26:45;100809.56;;;13.78;71.68
7168;BME280;3625;51.762;14.320;2023-05-02T06:29:14;100804.75;;;13.90;69.67
7168;BME280;3625;51.762;14.320;2023-05-02T06:31:42;100819.28;;;14.08;69.14
7168;BME280;3625;51.762;14.320;2023-05-02T06:34:11;100822.78;;;14.36;68.32
7168;BME280;3625;51.762;14.320;2023-05-02T06:36:40;100833.50;;;14.63;65.36
7168;BME280;3625;51.762;14.320;2023-05-02T06:39:10;100834.00;;;14.76;63.87
7168;BME280;3625;51.762;14.320;2023-05-02T06:41:39;100829.56;;;15.01;64.20
7168;BME280;3625;51.762;14.320;2023-05-02T06:44:15;100848.06;;;15.05;60.33
7168;BME280;3625;51.762;14.320;2023-05-02T06:46:44;100846.41;;;15.28;60.72
7168;BME280;3625;51.762;14.320;2023-05-02T06:49:12;100853.50;;;15.54;58.86
7168;BME280;3625;51.762;14.320;2023-05-02T06:51:41;100858.03;;;15.75;57.02
7168;BME280;3625;51.762;14.320;2023-05-02T06:54:11;100857.25;;;15.73;56.65
7168;BME280;3625;51.762;14.320;2023-05-02T06:56:41;100859.84;;;15.98;56.44
7168;BME280;3625;51.762;14.320;2023-05-02T06:59:10;100855.78;;;16.11;56.24
7168;BME280;3625;51.762;14.320;2023-05-02T07:01:39;100860.91;;;16.39;56.03
7168;BME280;3625;51.762;14.320;2023-05-02T07:04:08;100873.34;;;16.40;55.00
7168;BME280;3625;51.762;14.320;2023-05-02T07:06:37;100876.16;;;16.35;54.56
7168;BME280;3625;51.762;14.320;2023-05-02T07:09:05;100878.28;;;16.27;55.61
7168;BME280;3625;51.762;14.320;2023-05-02T07:11:35;100884.06;;;16.16;56.56
7168;BME280;3625;51.762;14.320;2023-05-02T07:14:04;100886.97;;;16.09;57.56
7168;BME280;3625;51.762;14.320;2023-05-02T07:16:33;100898.16;;;15.97;58.92
7168;BME280;3625;51.762;14.320;2023-05-02T07:19:02;100903.72;;;15.91;59.51
7168;BME280;3625;51.762;14.320;2023-05-02T07:21:33;100913.72;;;15.84;60.53
7168;BME280;3625;51.762;14.320;2023-05-02T07:24:01;100909.25;;;15.84;61.05
7168;BME280;3625;51.762;14.320;2023-05-02T07:26:30;100908.72;;;16.00;60.52
7168;BME280;3625;51.762;14.320;2023-05-02T07:29:00;100918.50;;;16.22;59.22
7168;BME280;3625;51.762;14.320;2023-05-02T07:31:31;100924.81;;;16.43;58.43
7168;BME280;3625;51.762;14.320;2023-05-02T07:33:59;100932.72;;;16.46;58.74
7168;BME280;3625;51.762;14.320;2023-05-02T07:36:28;100942.00;;;16.59;57.72
7168;BME280;3625;51.762;14.320;2023-05-02T07:38:57;100941.03;;;16.60;57.06
7168;BME280;3625;51.762;14.320;2023-05-02T07:41:26;100950.91;;;16.60;58.01
7168;BME280;3625;51.762;14.320;2023-05-02T07:43:55;100956.19;;;16.38;56.65
7168;BME280;3625;51.762;14.320;2023-05-02T07:46:26;100969.88;;;16.06;56.47
7168;BME280;3625;51.762;14.320;2023-05-02T07:48:54;100972.38;;;15.61;57.09
7168;BME280;3625;51.762;14.320;2023-05-02T07:51:23;100971.91;;;15.22;58.94
7168;BME280;3625;51.762;14.320;2023-05-02T07:53:53;100971.06;;;14.93;61.94
7168;BME280;3625;51.762;14.320;2023-05-02T07:56:25;100979.63;;;15.03;64.26
7168;BME280;3625;51.762;14.320;2023-05-02T07:58:53;100983.31;;;15.25;64.13
7168;BME280;3625;51.762;14.320;2023-05-02T08:01:22;100989.84;;;15.43;63.29
7168;BME280;3625;51.762;14.320;2023-05-02T08:03:52;100986.84;;;15.54;63.70
7168;BME280;3625;51.762;14.320;2023-05-02T08:06:21;100992.69;;;15.90;63.14
7168;BME280;3625;51.762;14.320;2023-05-02T08:08:50;100998.91;;;16.15;59.42
7168;BME280;3625;51.762;14.320;2023-05-02T08:11:19;101003.03;;;16.23;58.72
7168;BME280;3625;51.762;14.320;2023-05-02T08:13:50;101011.91;;;16.47;58.13
7168;BME280;3625;51.762;14.320;2023-05-02T08:16:19;101007.75;;;16.64;56.76
7168;BME280;3625;51.762;14.320;2023-05-02T08:18:48;101008.63;;;16.64;56.72
7168;BME280;3625;51.762;14.320;2023-05-02T08:21:18;101012.50;;;16.79;56.14
7168;BME280;3625;51.762;14.320;2023-05-02T08:23:47;101019.94;;;16.71;55.43
7168;BME280;3625;51.762;14.320;2023-05-02T08:26:16;101015.78;;;16.64;56.29
7168;BME280;3625;51.762;14.320;2023-05-02T08:28:45;101022.63;;;16.71;57.32
7168;BME280;3625;51.762;14.320;2023-05-02T08:31:14;101025.47;;;16.43;57.47
7168;BME280;3625;51.762;14.320;2023-05-02T08:33:43;101023.19;;;16.07;59.15
7168;BME280;3625;51.762;14.320;2023-05-02T08:36:12;101035.34;;;15.91;58.90
7168;BME280;3625;51.762;14.320;2023-05-02T08:38:43;101035.91;;;15.74;60.13
7168;BME280;3625;51.762;14.320;2023-05-02T08:41:12;101033.38;;;15.71;61.45
7168;BME280;3625;51.762;14.320;2023-05-02T08:43:43;101026.22;;;15.72;62.41
7168;BME280;3625;51.762;14.320;2023-05-02T08:46:14;101029.59;;;16.02;61.90
7168;BME280;3625;51.762;14.320;2023-05-02T08:48:44;101026.63;;;16.11;61.39
7168;BME280;3625;51.762;14.320;2023-05-02T08:51:16;101042.72;;;16.57;61.53
7168;BME280;3625;51.762;14.320;2023-05-02T08:53:47;101049.69;;;16.62;58.87
7168;BME280;3625;51.762;14.320;2023-05-02T08:56:16;101044.41;;;16.60;59.50
7168;BME280;3625;51.762;14.320;2023-05-02T08:58:45;101051.50;;;16.61;59.48
7168;BME280;3625;51.762;14.320;2023-05-02T09:01:15;101052.59;;;17.02;59.68
7168;BME280;3625;51.762;14.320;2023-05-02T09:03:45;101056.72;;;17.76;57.94
7168;BME280;3625;51.762;14.320;2023-05-02T09:06:16;101066.63;;;18.35;55.48
7168;BME280;3625;51.762;14.320;2023-05-02T09:08:48;101055.38;;;18.47;53.90
7168;BME280;3625;51.762;14.320;2023-05-02T09:11:19;101061.00;;;18.61;52.79
7168;BME280;3625;51.762;14.320;2023-05-02T09:13:48;101065.59;;;18.59;53.33
7168;BME280;3625;51.762;14.320;2023-05-02T09:16:19;101072.63;;;18.80;54.27
7168;BME280;3625;51.762;14.320;2023-05-02T09:18:50;101066.47;;;19.16;50.59
7168;BME280;3625;51.762;14.320;2023-05-02T09:21:21;101072.19;;;18.90;51.38
7168;BME280;3625;51.762;14.320;2023-05-02T09:23:53;101072.41;;;19.04;51.95
7168;BME280;3625;51.762;14.320;2023-05-02T09:26:24;101081.69;;;18.97;50.23
7168;BME280;3625;51.762;14.320;2023-05-02T09:28:58;101087.63;;;18.84;51.08
7168;BME280;3625;51.762;14.320;2023-05-02T09:31:29;101080.38;;;19.05;50.79
7168;BME280;3625;51.762;14.320;2023-05-02T09:34:09;101072.19;;;19.27;50.05
7168;BME280;3625;51.762;14.320;2023-05-02T09:36:39;101083.94;;;19.25;50.17
7168;BME280;3625;51.762;14.320;2023-05-02T09:39:11;101091.03;;;19.26;50.00
7168;BME280;3625;51.762;14.320;2023-05-02T09:41:41;101085.44;;;19.30;50.40
7168;BME280;3625;51.762;14.320;2023-05-02T09:44:11;101094.16;;;19.35;51.06
7168;BME280;3625;51.762;14.320;2023-05-02T09:46:40;101102.53;;;19.46;49.34
7168;BME280;3625;51.762;14.320;2023-05-02T09:49:09;101115.75;;;19.32;47.89
7168;BME280;3625;51.762;14.320;2023-05-02T09:51:38;101095.59;;;19.05;48.86
7168;BME280;3625;51.762;14.320;2023-05-02T09:54:08;101107.28;;;19.22;48.32
7168;BME280;3625;51.762;14.320;2023-05-02T09:56:53;101111.34;;;18.94;48.69
7168;BME280;3625;51.762;14.320;2023-05-02T09:59:23;101122.81;;;18.77;49.13
7168;BME280;3625;51.762;14.320;2023-05-02T10:01:56;101115.34;;;18.65;49.65
7168;BME280;3625;51.762;14.320;2023-05-02T10:04:26;101114.44;;;18.84;50.19
7168;BME280;3625;51.762;14.320;2023-05-02T10:06:56;101119.34;;;18.55;49.97
7168;BME280;3625;51.762;14.320;2023-05-02T10:09:26;101122.19;;;18.31;51.20
7168;BME280;3625;51.762;14.320;2023-05-02T10:12:01;101122.50;;;18.24;51.93
7168;BME280;3625;51.762;14.320;2023-05-02T10:14:37;101122.50;;;17.82;53.68
7168;BME280;3625;51.762;14.320;2023-05-02T10:17:12;101128.25;;;17.49;55.17
7168;BME280;3625;51.762;14.320;2023-05-02T10:19:49;101122.50;;;17.38;56.48
7168;BME280;3625;51.762;14.320;2023-05-02T10:22:22;101124.66;;;17.28;57.50
7168;BME280;3625;51.762;14.320;2023-05-02T10:24:53;101133.09;;;17.18;57.51
7168;BME280;3625;51.762;14.320;2023-05-02T10:27:22;101127.16;;;16.86;59.55
7168;BME280;3625;51.762;14.320;2023-05-02T10:29:51;101133.59;;;16.81;60.91
7168;BME280;3625;51.762;14.320;2023-05-02T10:32:22;101137.25;;;16.78;60.89
7168;BME280;3625;51.762;14.320;2023-05-02T10:34:52;101133.41;;;16.60;61.83
7168;BME280;3625;51.762;14.320;2023-05-02T10:37:22;101126.81;;;16.46;63.76
7168;BME280;3625;51.762;14.320;2023-05-02T10:39:54;101060.84;;;16.00;65.73
7168;BME280;3625;51.762;14.320;2023-05-02T10:42:23;101128.91;;;16.38;65.53
7168;BME280;3625;51.762;14.320;2023-05-02T10:44:52;101133.38;;;16.37;67.31
7168;BME280;3625;51.762;14.320;2023-05-02T10:47:22;101140.56;;;16.35;67.17
7168;BME280;3625;51.762;14.320;2023-05-02T10:49:51;101130.66;;;16.39;68.18
7168;BME280;3625;51.762;14.320;2023-05-02T10:52:28;101142.31;;;16.61;69.20
7168;BME280;3625;51.762;14.320;2023-05-02T10:55:15;101148.16;;;16.72;68.06
7168;BME280;3625;51.762;14.320;2023-05-02T10:58:18;101084.00;;;16.49;67.60
7168;BME280;3625;51.762;14.320;2023-05-02T11:00:48;101162.50;;;17.18;65.38
7168;BME280;3625;51.762;14.320;2023-05-02T11:06:20;101165.22;;;17.16;64.29
7168;BME280;3625;51.762;14.320;2023-05-02T11:08:49;101152.03;;;16.64;66.43
7168;BME280;3625;51.762;14.320;2023-05-02T11:11:41;101159.66;;;16.49;69.28
7168;BME280;3625;51.762;14.320;2023-05-02T11:14:12;101150.78;;;16.49;70.44
7168;BME280;3625;51.762;14.320;2023-05-02T11:17:09;101150.41;;;16.84;69.65
7168;BME280;3625;51.762;14.320;2023-05-02T11:22:54;101171.69;;;17.79;62.70
7168;BME280;3625;51.762;14.320;2023-05-02T11:25:41;101163.31;;;18.51;59.89
7168;BME280;3625;51.762;14.320;2023-05-02T11:28:39;101171.00;;;18.99;57.95
7168;BME280;3625;51.762;14.320;2023-05-02T11:33:57;101167.59;;;19.14;54.41
7168;BME280;3625;51.762;14.320;2023-05-02T11:36:29;101180.72;;;19.20;52.16
7168;BME280;3625;51.762;14.320;2023-05-02T11:39:00;101191.81;;;18.94;51.45
7168;BME280;3625;51.762;14.320;2023-05-02T11:41:38;101183.88;;;18.91;52.24
7168;BME280;3625;51.762;14.320;2023-05-02T11:44:09;101185.56;;;19.51;51.03
7168;BME280;3625;51.762;14.320;2023-05-02T11:46:38;101190.50;;;19.21;49.48
7168;BME280;3625;51.762;14.320;2023-05-02T11:49:08;101193.97;;;18.65;50.26
7168;BME280;3625;51.762;14.320;2023-05-02T11:51:41;101189.38;;;18.25;52.25
7168;BME280;3625;51.762;14.320;2023-05-02T11:54:18;101191.66;;;18.14;52.92
7168;BME280;3625;51.762;14.320;2023-05-02T11:56:47;101189.53;;;18.00;53.28
7168;BME280;3625;51.762;14.320;2023-05-02T11:59:17;101193.66;;;18.09;53.14
7168;BME280;3625;51.762;14.320;2023-05-02T12:01:49;101186.50;;;18.72;51.22
7168;BME280;3625;51.762;14.320;2023-05-02T12:04:20;101199.31;;;19.43;49.86
7168;BME280;3625;51.762;14.320;2023-05-02T12:06:56;101193.56;;;19.71;48.63
7168;BME280;3625;51.762;14.320;2023-05-02T12:09:25;101200.34;;;19.41;48.03
7168;BME280;3625;51.762;14.320;2023-05-02T12:11:54;101190.25;;;18.88;48.94
7168;BME280;3625;51.762;14.320;2023-05-02T12:14:28;101181.97;;;18.74;50.29
7168;BME280;3625;51.762;14.320;2023-05-02T12:17:01;101187.66;;;18.66;50.33
7168;BME280;3625;51.762;14.320;2023-05-02T12:19:30;101186.94;;;18.41;51.78
7168;BME280;3625;51.762;14.320;2023-05-02T12:21:59;101183.72;;;18.53;52.50
7168;BME280;3625;51.762;14.320;2023-05-02T12:24:28;101196.47;;;18.48;52.50
7168;BME280;3625;51.762;14.320;2023-05-02T12:27:10;101196.59;;;18.25;53.79
7168;BME280;3625;51.762;14.320;2023-05-02T12:29:42;101194.03;;;18.22;52.86
7168;BME280;3625;51.762;14.320;2023-05-02T12:32:12;101194.47;;;17.89;53.09
7168;BME280;3625;51.762;14.320;2023-05-02T12:34:41;101198.88;;;17.68;54.60
7168;BME280;3625;51.762;14.320;2023-05-02T12:37:10;101197.53;;;17.80;55.08
7168;BME280;3625;51.762;14.320;2023-05-02T12:39:40;101198.22;;;18.27;53.49
7168;BME280;3625;51.762;14.320;2023-05-02T12:42:09;101201.75;;;18.50;51.69
7168;BME280;3625;51.762;14.320;2023-05-02T12:44:41;101197.75;;;18.18;51.20
7168;BME280;3625;51.762;14.320;2023-05-02T12:47:12;101187.75;;;17.79;52.70
7168;BME280;3625;51.762;14.320;2023-05-02T12:49:48;101186.44;;;17.67;53.03
7168;BME280;3625;51.762;14.320;2023-05-02T12:52:18;101192.13;;;17.58;53.26
7168;BME280;3625;51.762;14.320;2023-05-02T12:54:47;101186.03;;;17.55;52.77
7168;BME280;3625;51.762;14.320;2023-05-02T12:57:23;101185.50;;;17.68;52.22
7168;BME280;3625;51.762;14.320;2023-05-02T12:59:53;101183.81;;;18.09;51.90
7168;BME280;3625;51.762;14.320;2023-05-02T13:02:22;101187.63;;;18.46;51.75
7168;BME280;3625;51.762;14.320;2023-05-02T13:04:52;101175.59;;;18.76;50.82
7168;BME280;3625;51.762;14.320;2023-05-02T13:07:21;101185.75;;;18.89;50.15
7168;BME280;3625;51.762;14.320;2023-05-02T13:09:50;101191.25;;;18.85;47.87
7168;BME280;3625;51.762;14.320;2023-05-02T13:12:18;101200.25;;;18.64;48.70
7168;BME280;3625;51.762;14.320;2023-05-02T13:14:47;101189.47;;;18.24;49.88
7168;BME280;3625;51.762;14.320;2023-05-02T13:17:18;101194.78;;;18.03;51.02
7168;BME280;3625;51.762;14.320;2023-05-02T13:19:48;101190.94;;;18.31;51.03
7168;BME280;3625;51.762;14.320;2023-05-02T13:22:28;101197.91;;;18.57;49.83
7168;BME280;3625;51.762;14.320;2023-05-02T13:24:57;101201.13;;;18.85;48.64
7168;BME280;3625;51.762;14.320;2023-05-02T13:27:25;101200.56;;;18.97;48.33